Time;durP1;ratioP1;P1;durP2;ratioP2;P2;SDS_P1;SDS_P2;PMS_P1;PMS_P2;Temp;Humidity;BMP_temperature;BMP_pressure;BME280_temperature;BME280_humidity;BME280_pressure;Samples;Min_cycle;Max_cycle;Signal;HPM_P1;HPM_P2
2022/05/26 00:00:30;;;;;;;2.47;1.10;;;9.40;99.90;;;;;;5050619;28;20466;-80
2022/05/26 00:02:57;;;;;;;2.60;0.95;;;9.30;99.90;;;;;;5050828;28;20017;-80
2022/05/26 00:05:24;;;;;;;2.15;1.25;;;9.30;99.90;;;;;;5050682;28;20442;-80
2022/05/26 00:07:51;;;;;;;2.75;0.75;;;9.30;99.90;;;;;;5050227;28;20017;-79
2022/05/26 00:10:17;;;;;;;6.93;1.10;;;9.20;99.90;;;;;;5031940;28;20021;-79
2022/05/26 00:12:44;;;;;;;4.65;1.17;;;9.20;99.90;;;;;;5043634;28;20016;-79
2022/05/26 00:15:11;;;;;;;6.28;1.33;;;9.20;99.90;;;;;;5047699;28;21208;-79
2022/05/26 00:17:37;;;;;;;2.00;1.17;;;9.20;99.90;;;;;;5049230;28;20539;-79
2022/05/26 00:20:04;;;;;;;5.93;1.10;;;9.20;99.90;;;;;;5050241;28;20025;-79
2022/05/26 00:22:30;;;;;;;1.70;1.10;;;9.20;99.90;;;;;;5049463;28;20103;-80
2022/05/26 00:24:56;;;;;;;3.78;1.00;;;9.20;99.90;;;;;;5066332;22;20120;-84
2022/05/26 00:27:22;;;;;;;2.55;1.00;;;9.30;99.90;;;;;;5033425;28;20053;-83
2022/05/26 00:29:48;;;;;;;5.80;1.10;;;9.40;99.90;;;;;;5032660;28;20163;-86
2022/05/26 00:32:14;;;;;;;3.53;1.38;;;9.70;99.90;;;;;;5032484;28;20520;-83
2022/05/26 00:34:39;;;;;;;2.13;1.00;;;9.70;99.90;;;;;;5026552;28;20533;-86
2022/05/26 00:37:07;;;;;;;3.85;1.25;;;9.80;99.90;;;;;;5031462;28;20039;-84
2022/05/26 00:39:33;;;;;;;4.05;1.15;;;9.90;99.90;;;;;;5030934;28;20537;-86
2022/05/26 00:42:01;;;;;;;4.07;1.30;;;10.00;99.90;;;;;;5012181;28;20034;-86
2022/05/26 00:44:28;;;;;;;2.92;1.25;;;10.10;99.90;;;;;;5012105;28;20677;-82
2022/05/26 00:46:57;;;;;;;5.00;1.40;;;10.10;99.90;;;;;;5013846;28;20036;-86
2022/05/26 00:49:35;;;;;;;1.92;1.00;;;10.10;99.90;;;;;;5013128;28;20075;-82
2022/05/26 00:52:02;;;;;;;6.35;2.05;;;10.10;99.90;;;;;;5026039;28;20043;-86
2022/05/26 00:54:29;;;;;;;4.97;1.40;;;10.10;99.90;;;;;;5030392;28;20025;-83
2022/05/26 00:56:59;;;;;;;4.55;1.48;;;10.00;99.90;;;;;;5030124;28;20575;-83
2022/05/26 00:59:47;;;;;;;2.95;1.05;;;10.00;99.90;;;;;;5012759;28;20026;-83
2022/05/26 01:02:16;;;;;;;4.70;1.25;;;9.90;99.90;;;;;;5013638;28;20032;-84
2022/05/26 01:04:50;;;;;;;5.63;1.23;;;9.90;99.90;;;;;;5012654;28;20025;-84
2022/05/26 01:07:20;;;;;;;2.40;1.02;;;9.80;99.90;;;;;;5037511;28;20009;-84
2022/05/26 01:09:46;;;;;;;2.83;1.25;;;9.80;99.90;;;;;;5029079;28;20100;-86
2022/05/26 01:12:12;;;;;;;4.47;1.58;;;9.80;99.90;;;;;;5012147;28;20109;-86
2022/05/26 01:14:45;;;;;;;3.25;1.52;;;9.70;99.90;;;;;;5012556;28;20501;-87
2022/05/26 01:17:52;;;;;;;4.13;1.23;;;9.70;99.90;;;;;;5030525;28;20030;-86
2022/05/26 01:20:43;;;;;;;3.30;1.45;;;9.70;99.90;;;;;;4996407;28;20067;-86
2022/05/26 01:23:46;;;;;;;2.10;1.17;;;9.60;99.90;;;;;;5007275;28;20033;-84
2022/05/26 01:26:31;;;;;;;3.20;0.90;;;9.60;99.90;;;;;;5121138;23;20040;-80
2022/05/26 01:29:08;;;;;;;3.13;1.20;;;9.50;99.90;;;;;;5116273;27;20125;-80
2022/05/26 01:31:53;;;;;;;2.65;1.27;;;9.50;99.90;;;;;;5135141;27;20034;-79
2022/05/26 01:34:51;;;;;;;3.28;1.35;;;9.50;99.90;;;;;;5134264;27;20027;-80
2022/05/26 01:37:57;;;;;;;2.95;1.35;;;9.40;99.90;;;;;;5133610;27;20472;-79
2022/05/26 01:40:50;;;;;;;4.15;1.65;;;9.30;99.90;;;;;;5077664;27;20039;-79
2022/05/26 01:43:28;;;;;;;5.25;1.30;;;9.20;99.90;;;;;;5134460;27;20019;-79
2022/05/26 01:45:59;;;;;;;6.97;1.38;;;9.20;99.90;;;;;;5134026;27;20022;-79
2022/05/26 01:48:43;;;;;;;4.38;1.15;;;9.20;99.90;;;;;;5134233;27;20106;-79
2022/05/26 01:51:17;;;;;;;2.85;1.05;;;9.10;99.90;;;;;;5129629;27;20028;-79
2022/05/26 01:54:15;;;;;;;1.80;1.20;;;9.30;99.90;;;;;;5134135;27;20023;-79
2022/05/26 01:56:53;;;;;;;2.47;1.10;;;9.30;99.90;;;;;;5129188;27;20091;-79
2022/05/26 01:59:41;;;;;;;3.45;1.38;;;9.40;99.90;;;;;;5133838;27;20026;-79
2022/05/26 02:02:22;;;;;;;1.90;1.08;;;9.40;99.90;;;;;;5129542;27;20027;-79
2022/05/26 02:04:56;;;;;;;5.53;1.40;;;9.40;99.90;;;;;;5129126;27;20027;-79
2022/05/26 02:07:25;;;;;;;2.58;0.98;;;9.40;99.90;;;;;;5109696;27;20023;-79
2022/05/26 02:09:54;;;;;;;5.60;1.25;;;9.30;99.90;;;;;;5132395;27;20011;-79
2022/05/26 02:12:25;;;;;;;3.80;1.42;;;9.30;99.90;;;;;;5133421;27;20129;-80
2022/05/26 02:14:55;;;;;;;3.73;1.50;;;9.40;99.90;;;;;;5133870;27;20011;-80
2022/05/26 02:17:32;;;;;;;4.10;1.10;;;9.50;99.90;;;;;;5127586;27;20340;-80
2022/05/26 02:20:05;;;;;;;3.63;1.20;;;9.60;99.90;;;;;;5133374;27;20023;-80
2022/05/26 02:22:42;;;;;;;3.08;1.23;;;9.70;99.90;;;;;;5133077;27;20023;-80
2022/05/26 02:25:20;;;;;;;4.38;1.25;;;9.80;99.90;;;;;;5133581;22;20048;-86
2022/05/26 02:27:50;;;;;;;7.95;1.40;;;9.80;99.90;;;;;;5093009;28;20022;-83
2022/05/26 02:30:16;;;;;;;6.75;1.40;;;9.80;99.90;;;;;;5093185;28;20042;-86
2022/05/26 02:32:48;;;;;;;3.17;1.20;;;9.80;99.90;;;;;;5093026;28;20023;-86
2022/05/26 02:35:20;;;;;;;3.22;1.30;;;9.90;99.90;;;;;;5092436;28;20030;-85
2022/05/26 02:37:48;;;;;;;5.78;1.15;;;9.90;99.90;;;;;;5091973;28;20020;-83
2022/05/26 02:40:15;;;;;;;3.38;1.10;;;9.80;99.90;;;;;;5092088;28;20598;-83
2022/05/26 02:42:50;;;;;;;4.00;1.08;;;9.80;99.90;;;;;;5092609;28;20028;-86
2022/05/26 02:45:25;;;;;;;3.45;1.40;;;9.70;99.90;;;;;;5092220;28;20024;-83
2022/05/26 02:47:56;;;;;;;7.45;1.45;;;9.70;99.90;;;;;;5091502;28;20035;-83
2022/05/26 02:50:36;;;;;;;6.57;2.50;;;9.70;99.90;;;;;;5092788;28;20469;-83
2022/05/26 02:53:19;;;;;;;3.00;1.38;;;9.70;99.90;;;;;;5087358;28;20039;-83
2022/05/26 02:56:09;;;;;;;4.68;1.77;;;9.60;99.90;;;;;;5086615;28;20488;-83
2022/05/26 02:58:38;;;;;;;3.03;1.20;;;9.60;99.90;;;;;;5087342;28;20027;-84
2022/05/26 03:01:25;;;;;;;4.38;1.65;;;9.50;99.90;;;;;;5067254;28;20031;-84
2022/05/26 03:04:17;;;;;;;3.05;1.30;;;9.50;99.90;;;;;;5084969;28;20026;-83
2022/05/26 03:06:55;;;;;;;2.97;1.02;;;9.60;99.90;;;;;;5074756;28;20058;-86
2022/05/26 03:09:22;;;;;;;11.57;1.80;;;9.70;99.90;;;;;;5085556;28;20024;-86
2022/05/26 03:11:58;;;;;;;6.00;1.30;;;9.80;99.90;;;;;;5092202;28;20017;-86
2022/05/26 03:14:25;;;;;;;4.45;1.48;;;9.90;99.90;;;;;;5091502;28;20066;-85
2022/05/26 03:16:52;;;;;;;2.95;1.90;;;10.00;99.90;;;;;;5092155;28;20027;-86
2022/05/26 03:19:18;;;;;;;6.03;1.58;;;10.00;99.90;;;;;;5091907;28;20099;-86
2022/05/26 03:21:45;;;;;;;4.07;1.17;;;10.10;99.90;;;;;;5073901;28;20107;-85
2022/05/26 03:26:39;;;;;;;3.42;1.48;;;10.10;99.90;;;;;;5028371;28;20045;-78
2022/05/26 03:29:06;;;;;;;4.45;1.40;;;10.10;99.90;;;;;;5030553;28;20056;-78
2022/05/26 03:31:33;;;;;;;6.30;1.48;;;10.10;99.90;;;;;;5012601;28;20113;-78
2022/05/26 03:42:14;;;;;;;5.38;1.70;;;9.90;99.90;;;;;;5012867;28;20080;-78
2022/05/26 03:44:40;;;;;;;3.08;1.50;;;9.90;99.90;;;;;;5010425;28;20100;-78
2022/05/26 03:47:06;;;;;;;5.85;1.80;;;10.00;99.90;;;;;;5011927;28;20105;-78
2022/05/26 03:49:32;;;;;;;6.28;1.58;;;10.10;99.90;;;;;;5010360;28;20108;-78
2022/05/26 03:51:58;;;;;;;4.80;1.48;;;10.10;99.90;;;;;;4989809;28;20109;-78
2022/05/26 03:54:27;;;;;;;2.85;1.27;;;10.00;99.90;;;;;;4990890;28;20045;-78
2022/05/26 03:56:53;;;;;;;1.42;0.93;;;10.00;99.90;;;;;;5011824;28;20116;-78
2022/05/26 03:59:19;;;;;;;10.68;1.25;;;9.90;99.90;;;;;;5011193;28;20495;-78
2022/05/26 04:01:46;;;;;;;2.38;1.35;;;9.80;99.90;;;;;;4993971;28;20438;-78
2022/05/26 04:04:11;;;;;;;4.30;1.20;;;9.70;99.90;;;;;;5010958;28;20025;-78
2022/05/26 04:06:37;;;;;;;2.45;1.33;;;9.60;99.90;;;;;;5012043;28;20018;-78
2022/05/26 04:09:04;;;;;;;0.90;0.90;;;9.50;99.90;;;;;;5011000;28;20060;-78
2022/05/26 04:11:30;;;;;;;1.40;0.80;;;9.50;99.90;;;;;;5010830;28;20026;-79
2022/05/26 04:13:56;;;;;;;5.05;1.20;;;9.50;99.90;;;;;;4993220;28;20018;-79
2022/05/26 04:16:23;;;;;;;3.60;1.58;;;9.60;99.90;;;;;;5011615;28;20034;-78
2022/05/26 04:18:50;;;;;;;2.60;1.30;;;9.50;99.90;;;;;;5010983;28;20463;-78
2022/05/26 04:21:16;;;;;;;7.47;1.30;;;9.50;99.90;;;;;;5011993;28;20022;-78
2022/05/26 04:23:42;;;;;;;3.92;1.00;;;9.40;99.90;;;;;;5011005;28;20109;-78
2022/05/26 04:26:09;;;;;;;1.88;0.82;;;9.30;99.90;;;;;;5079257;22;20468;-80
2022/05/26 04:28:35;;;;;;;3.60;1.23;;;9.30;99.90;;;;;;5070621;28;20094;-80
2022/05/26 04:31:02;;;;;;;6.20;1.27;;;9.30;99.90;;;;;;5071401;28;20024;-80
2022/05/26 04:33:29;;;;;;;2.97;0.93;;;9.30;99.90;;;;;;5069817;28;20031;-80
2022/05/26 04:35:56;;;;;;;1.42;1.10;;;9.30;99.90;;;;;;5069671;28;20082;-80
2022/05/26 04:38:22;;;;;;;3.55;1.10;;;9.30;99.90;;;;;;5068675;28;20025;-80
2022/05/26 04:41:06;;;;;;;2.85;1.23;;;9.40;99.90;;;;;;5069465;28;20053;-80
2022/05/26 04:43:33;;;;;;;5.00;1.20;;;9.60;99.90;;;;;;5068827;28;20028;-80
2022/05/26 04:45:59;;;;;;;1.20;1.10;;;9.60;99.90;;;;;;5069531;28;20166;-81
2022/05/26 04:48:25;;;;;;;7.88;1.20;;;9.70;99.90;;;;;;5069872;28;20056;-80
2022/05/26 04:50:52;;;;;;;8.93;1.63;;;9.80;99.90;;;;;;5070881;28;20063;-80
2022/05/26 04:53:18;;;;;;;7.43;1.55;;;9.90;99.90;;;;;;5070100;28;20116;-80
2022/05/26 04:55:46;;;;;;;4.72;1.50;;;10.00;99.90;;;;;;5053138;28;20039;-80
2022/05/26 04:58:11;;;;;;;1.98;1.33;;;10.10;99.90;;;;;;5070738;28;20039;-81
2022/05/26 05:00:37;;;;;;;4.13;1.35;;;10.20;99.90;;;;;;5070542;28;20024;-81
2022/05/26 05:03:03;;;;;;;2.65;1.25;;;10.40;99.90;;;;;;5070534;28;20489;-80
2022/05/26 05:05:29;;;;;;;8.07;2.30;;;10.50;99.90;;;;;;5070865;28;20029;-79
2022/05/26 05:07:55;;;;;;;10.23;1.58;;;10.40;99.90;;;;;;5070244;28;20359;-80
2022/05/26 05:10:20;;;;;;;5.50;1.45;;;10.50;99.90;;;;;;5070380;28;20036;-80
2022/05/26 05:12:49;;;;;;;3.38;1.20;;;10.70;99.90;;;;;;5070699;28;20116;-82
2022/05/26 05:15:22;;;;;;;4.13;1.88;;;10.70;99.90;;;;;;5070164;28;20116;-80
2022/05/26 05:17:48;;;;;;;4.35;1.50;;;10.80;99.90;;;;;;5070444;28;20126;-81
2022/05/26 05:20:14;;;;;;;2.95;1.48;;;10.80;99.90;;;;;;5070304;28;20052;-81
2022/05/26 05:22:53;;;;;;;4.35;1.10;;;10.90;99.90;;;;;;5070424;28;20035;-81
2022/05/26 05:25:24;;;;;;;6.25;1.83;;;11.10;99.90;;;;;;5086812;22;20127;-82
2022/05/26 05:27:57;;;;;;;6.68;1.75;;;11.20;99.90;;;;;;5070995;28;20508;-82
2022/05/26 05:30:48;;;;;;;6.35;1.50;;;11.30;99.90;;;;;;5070878;28;20477;-86
2022/05/26 05:33:36;;;;;;;5.30;1.80;;;11.40;99.90;;;;;;5046331;28;20040;-85
2022/05/26 05:36:09;;;;;;;5.43;1.55;;;11.40;99.90;;;;;;5070305;28;20028;-85
2022/05/26 05:38:38;;;;;;;10.60;2.03;;;11.60;99.90;;;;;;5070350;28;20025;-84
2022/05/26 05:41:05;;;;;;;5.97;1.70;;;11.60;99.90;;;;;;5070237;28;20474;-81
2022/05/26 05:43:31;;;;;;;7.53;2.03;;;11.80;99.90;;;;;;5069324;28;20032;-81
2022/05/26 05:45:57;;;;;;;3.60;2.05;;;11.80;99.90;;;;;;5052559;28;20070;-81
2022/05/26 05:48:24;;;;;;;3.78;1.50;;;11.90;99.90;;;;;;5069186;28;20408;-83
2022/05/26 05:50:51;;;;;;;1.80;1.25;;;11.90;99.90;;;;;;5070827;28;20021;-81
2022/05/26 05:53:17;;;;;;;6.15;1.80;;;12.00;99.90;;;;;;5052436;28;20024;-81
2022/05/26 05:55:43;;;;;;;4.13;1.30;;;12.00;99.90;;;;;;5070104;28;20060;-83
2022/05/26 05:58:09;;;;;;;6.90;1.23;;;12.20;99.90;;;;;;5069573;28;20499;-80
2022/05/26 06:00:36;;;;;;;5.20;1.70;;;12.30;99.90;;;;;;5052783;28;20055;-81
2022/05/26 06:03:03;;;;;;;7.05;2.05;;;12.50;99.90;;;;;;5070297;28;20028;-81
2022/05/26 06:05:29;;;;;;;4.97;1.85;;;12.90;99.90;;;;;;5052073;28;20031;-82
2022/05/26 06:07:55;;;;;;;4.75;1.60;;;13.10;99.90;;;;;;5051641;28;20061;-80
2022/05/26 06:10:21;;;;;;;4.63;1.73;;;13.40;99.90;;;;;;5067177;28;20024;-81
2022/05/26 06:12:47;;;;;;;7.80;1.40;;;13.60;99.90;;;;;;5063723;28;20029;-81
2022/05/26 06:15:13;;;;;;;12.45;1.45;;;13.80;99.90;;;;;;5071574;28;20024;-80
2022/05/26 06:17:39;;;;;;;12.75;2.35;;;14.10;99.90;;;;;;5073035;28;20028;-79
2022/05/26 06:20:07;;;;;;;4.60;1.48;;;14.20;99.90;;;;;;5071457;28;20086;-81
2022/05/26 06:22:37;;;;;;;4.40;0.90;;;14.40;99.90;;;;;;5069196;28;20450;-80
2022/05/26 06:25:03;;;;;;;5.03;1.25;;;14.50;99.90;;;;;;5048594;28;20103;-80
2022/05/26 06:30:16;;;;;;;4.00;1.15;;;14.80;99.90;;;;;;5072743;28;20386;-80
2022/05/26 06:38:20;;;;;;;3.13;1.52;;;14.90;99.90;;;;;;5072639;28;20035;-82
2022/05/26 06:40:46;;;;;;;5.20;0.93;;;14.90;99.90;;;;;;5072200;28;20170;-81
2022/05/26 06:43:14;;;;;;;3.05;1.23;;;14.90;99.90;;;;;;5071632;28;20103;-81
2022/05/26 06:45:40;;;;;;;3.85;0.90;;;15.10;99.90;;;;;;5065596;28;20024;-81
2022/05/26 06:48:07;;;;;;;4.93;0.90;;;15.20;99.90;;;;;;5071566;28;20059;-82
2022/05/26 06:50:33;;;;;;;6.47;1.45;;;15.20;99.90;;;;;;5068353;28;20059;-80
2022/05/26 06:52:59;;;;;;;1.77;0.63;;;15.30;99.90;;;;;;5071228;28;20032;-81
2022/05/26 06:55:24;;;;;;;3.55;0.88;;;15.40;99.90;;;;;;5095221;22;20049;-80
2022/05/26 06:57:50;;;;;;;6.75;1.40;;;15.40;99.90;;;;;;5052530;28;20502;-79
2022/05/26 07:00:18;;;;;;;5.32;0.95;;;15.30;99.90;;;;;;5071916;28;20070;-79
2022/05/26 07:02:44;;;;;;;3.72;1.08;;;15.20;99.90;;;;;;5053769;28;20028;-79
2022/05/26 07:05:11;;;;;;;4.38;0.70;;;15.30;99.90;;;;;;5053401;28;20044;-78
2022/05/26 07:07:41;;;;;;;6.90;1.10;;;15.30;99.90;;;;;;5064235;28;20704;-78
2022/05/26 07:10:08;;;;;;;6.65;1.13;;;15.40;99.90;;;;;;5068945;28;20025;-80
2022/05/26 07:12:35;;;;;;;4.28;1.10;;;15.50;99.90;;;;;;5070504;28;20021;-78
2022/05/26 07:15:03;;;;;;;13.98;1.85;;;15.30;99.90;;;;;;5071770;28;20052;-77
2022/05/26 07:17:29;;;;;;;1.50;1.40;;;15.40;99.90;;;;;;5072167;28;20028;-83
2022/05/26 07:19:55;;;;;;;1.77;1.25;;;15.40;99.90;;;;;;5052968;28;20023;-80
2022/05/26 07:22:21;;;;;;;1.75;0.90;;;15.50;99.90;;;;;;5071400;28;20066;-79
2022/05/26 07:24:49;;;;;;;4.72;1.23;;;15.60;99.90;;;;;;5070921;28;20016;-79
2022/05/26 07:27:15;;;;;;;3.70;1.50;;;15.60;99.90;;;;;;5071750;28;20477;-79
2022/05/26 07:29:41;;;;;;;4.43;1.33;;;15.70;99.90;;;;;;5071227;28;20579;-79
2022/05/26 07:32:07;;;;;;;4.78;1.40;;;15.80;99.90;;;;;;5053619;28;20557;-78
2022/05/26 07:34:33;;;;;;;4.70;1.05;;;15.80;99.90;;;;;;5071398;28;20181;-79
2022/05/26 07:42:36;;;;;;;3.10;1.08;;;16.60;99.90;;;;;;5071625;28;20065;-79
2022/05/26 07:45:04;;;;;;;2.90;1.10;;;16.60;99.90;;;;;;5071107;28;20422;-79
2022/05/26 07:47:30;;;;;;;1.77;0.70;;;16.80;99.90;;;;;;5070796;28;20017;-80
2022/05/26 07:49:56;;;;;;;1.85;0.85;;;16.90;99.90;;;;;;5053346;28;20028;-79
2022/05/26 07:52:22;;;;;;;1.92;0.90;;;17.10;99.90;;;;;;5071945;28;20029;-79
2022/05/26 07:54:48;;;;;;;1.50;1.10;;;17.10;99.90;;;;;;5089946;22;20105;-74
2022/05/26 07:57:27;;;;;;;6.75;1.60;;;17.30;99.90;;;;;;5073276;28;20047;-77
2022/05/26 07:59:54;;;;;;;5.22;1.38;;;17.20;99.90;;;;;;5091974;28;20082;-77
2022/05/26 08:02:20;;;;;;;3.15;1.00;;;17.20;99.90;;;;;;5091978;28;20480;-77
2022/05/26 08:04:47;;;;;;;3.70;1.77;;;17.10;99.90;;;;;;5091825;28;20034;-77
2022/05/26 08:07:14;;;;;;;2.85;1.10;;;17.30;99.90;;;;;;5092546;28;20050;-78
2022/05/26 08:09:40;;;;;;;4.65;1.30;;;17.40;99.90;;;;;;5091619;28;20020;-78
2022/05/26 08:12:11;;;;;;;2.78;1.48;;;17.50;99.90;;;;;;5090739;28;20062;-78
2022/05/26 08:14:38;;;;;;;3.37;1.13;;;17.60;99.90;;;;;;5091426;28;20028;-78
2022/05/26 08:17:04;;;;;;;4.60;1.02;;;17.60;99.90;;;;;;5091721;28;20036;-77
2022/05/26 08:19:30;;;;;;;2.17;1.10;;;17.40;99.90;;;;;;5091882;28;20020;-78
2022/05/26 08:21:56;;;;;;;1.67;1.10;;;17.50;99.90;;;;;;5092456;28;20020;-77
2022/05/26 08:24:24;;;;;;;3.42;1.10;;;17.70;99.90;;;;;;5091304;28;20469;-77
2022/05/26 08:26:50;;;;;;;1.75;0.90;;;17.90;99.90;;;;;;5090516;28;20044;-77
2022/05/26 08:29:16;;;;;;;3.75;1.17;;;17.90;99.90;;;;;;5073008;28;20027;-77
2022/05/26 08:31:42;;;;;;;1.40;0.77;;;18.10;99.90;;;;;;5092335;28;20020;-77
2022/05/26 08:34:08;;;;;;;3.50;1.05;;;18.40;99.90;;;;;;5091493;28;20385;-77
2022/05/26 08:36:35;;;;;;;1.80;1.30;;;18.50;99.90;;;;;;5091201;28;20110;-77
2022/05/26 08:39:02;;;;;;;4.10;1.25;;;18.80;99.90;;;;;;5091139;28;20020;-77
2022/05/26 08:41:33;;;;;;;2.42;1.30;;;18.70;99.90;;;;;;5092196;28;20069;-77
2022/05/26 08:44:13;;;;;;;3.78;1.27;;;18.40;99.90;;;;;;5091495;28;20059;-77
2022/05/26 08:47:01;;;;;;;3.85;1.17;;;18.40;99.90;;;;;;5091797;28;20020;-77
2022/05/26 08:49:40;;;;;;;3.75;1.20;;;18.60;99.90;;;;;;5091143;28;20106;-75
2022/05/26 08:52:13;;;;;;;2.92;1.13;;;18.70;99.90;;;;;;5091323;28;20054;-74
2022/05/26 08:55:01;;;;;;;1.98;1.10;;;19.10;99.90;;;;;;5106973;22;20012;-80
2022/05/26 08:58:08;;;;;;;3.90;1.05;;;19.40;98.60;;;;;;5052804;28;20071;-81
2022/05/26 09:00:37;;;;;;;4.05;1.27;;;20.20;98.00;;;;;;4993093;28;20515;-80
2022/05/26 09:03:18;;;;;;;2.95;1.42;;;20.80;93.70;;;;;;5061854;28;20048;-80
2022/05/26 09:05:46;;;;;;;3.90;2.20;;;20.80;91.10;;;;;;5071472;28;20358;-80
2022/05/26 09:14:03;;;;;;;3.27;1.33;;;20.80;90.60;;;;;;5071101;28;20132;-79
2022/05/26 09:16:32;;;;;;;3.03;1.23;;;21.10;90.00;;;;;;5071342;28;20040;-79
2022/05/26 09:19:13;;;;;;;1.88;1.08;;;21.50;89.30;;;;;;5070509;28;20021;-79
2022/05/26 09:21:40;;;;;;;1.30;1.00;;;22.00;85.00;;;;;;5071258;28;20094;-79
2022/05/26 09:24:16;;;;;;;3.15;1.48;;;22.40;81.80;;;;;;5052608;28;20066;-79
2022/05/26 09:26:48;;;;;;;1.10;1.00;;;23.10;77.60;;;;;;5070855;28;20036;-79
2022/05/26 09:29:15;;;;;;;4.05;1.10;;;22.60;73.00;;;;;;5051601;28;20385;-79
2022/05/26 09:31:47;;;;;;;5.80;0.70;;;22.50;76.00;;;;;;5070818;28;20109;-79
2022/05/26 09:34:29;;;;;;;7.45;1.02;;;22.10;74.80;;;;;;5052187;28;20366;-79
2022/05/26 09:37:03;;;;;;;1.88;0.70;;;21.50;79.10;;;;;;5070971;28;20085;-80
2022/05/26 09:39:37;;;;;;;3.05;0.63;;;21.30;81.00;;;;;;5070595;28;20079;-79
2022/05/26 09:42:07;;;;;;;3.45;1.17;;;21.50;83.90;;;;;;5070884;28;20025;-79
2022/05/26 09:45:01;;;;;;;1.02;0.45;;;21.40;77.30;;;;;;5070364;28;20107;-79
2022/05/26 09:47:30;;;;;;;3.47;0.57;;;21.30;80.10;;;;;;5070717;28;20066;-79
2022/05/26 09:49:58;;;;;;;3.42;0.60;;;20.90;82.80;;;;;;5074177;28;20028;-79
2022/05/26 09:52:28;;;;;;;2.33;0.52;;;20.70;86.30;;;;;;5074801;28;20038;-80
2022/05/26 09:55:14;;;;;;;6.07;1.00;;;20.40;86.00;;;;;;5093015;22;20015;-80
2022/05/26 09:57:40;;;;;;;3.08;0.80;;;20.30;90.00;;;;;;5075103;28;20093;-80
2022/05/26 10:00:34;;;;;;;3.72;1.70;;;20.00;92.10;;;;;;5093687;28;20028;-79
2022/05/26 10:03:05;;;;;;;5.68;1.10;;;19.70;93.00;;;;;;5093732;28;20484;-79
2022/05/26 10:05:59;;;;;;;1.92;0.55;;;19.90;93.30;;;;;;5066407;28;20125;-79
2022/05/26 10:08:51;;;;;;;3.92;0.50;;;20.00;94.10;;;;;;5045717;28;20041;-79
2022/05/26 10:11:52;;;;;;;4.65;0.75;;;20.30;93.60;;;;;;5073987;28;20017;-79
2022/05/26 10:14:43;;;;;;;5.35;1.02;;;20.30;93.20;;;;;;5052721;28;20032;-79
2022/05/26 10:17:19;;;;;;;4.10;0.55;;;19.80;95.20;;;;;;5048224;28;20044;-79
2022/05/26 10:20:02;;;;;;;2.30;0.95;;;19.50;97.40;;;;;;5073469;28;20109;-78
2022/05/26 10:22:49;;;;;;;5.47;0.60;;;19.50;96.60;;;;;;5068442;28;20066;-77
2022/05/26 10:25:35;;;;;;;2.50;0.55;;;19.30;97.20;;;;;;5050132;28;20028;-79
2022/05/26 10:28:19;;;;;;;1.85;0.40;;;19.10;99.40;;;;;;5068865;28;20111;-80
2022/05/26 10:31:05;;;;;;;5.55;0.77;;;19.10;99.90;;;;;;5069006;28;20070;-79
2022/05/26 10:34:02;;;;;;;1.02;0.60;;;19.10;99.40;;;;;;5068166;28;20028;-79
2022/05/26 10:36:30;;;;;;;2.63;1.02;;;19.10;99.50;;;;;;5073479;28;20024;-79
2022/05/26 10:39:05;;;;;;;1.45;0.80;;;19.50;99.30;;;;;;5073120;28;20016;-79
2022/05/26 10:41:33;;;;;;;2.40;0.50;;;19.70;97.80;;;;;;5067412;28;20023;-79
2022/05/26 10:44:31;;;;;;;5.68;0.70;;;19.90;98.90;;;;;;5072198;28;20389;-79
2022/05/26 10:46:59;;;;;;;1.17;0.40;;;20.10;98.60;;;;;;5048723;28;20147;-78
2022/05/26 10:49:37;;;;;;;6.80;1.30;;;20.10;96.10;;;;;;5072447;28;20031;-78
2022/05/26 10:52:29;;;;;;;2.70;0.93;;;19.80;97.30;;;;;;5072691;28;20035;-79
2022/05/26 10:55:04;;;;;;;;;;;20.20;96.10;;;;;;4995249;22;20031;-79
2022/05/26 10:57:47;;;;;;;0.95;0.40;;;20.80;94.80;;;;;;5054457;28;19967;-78
2022/05/26 11:00:19;;;;;;;1.75;0.30;;;21.60;91.00;;;;;;5072530;28;20027;-79
2022/05/26 11:03:07;;;;;;;3.65;0.50;;;22.30;91.40;;;;;;5073574;28;20066;-79
2022/05/26 11:05:38;;;;;;;3.00;0.80;;;23.90;89.90;;;;;;5064449;28;20572;-79
2022/05/26 11:08:29;;;;;;;4.38;0.40;;;24.80;73.50;;;;;;5092224;28;20031;-79
2022/05/26 11:11:09;;;;;;;3.83;0.52;;;24.70;74.70;;;;;;5074893;28;20480;-79
2022/05/26 11:13:53;;;;;;;7.38;0.63;;;24.10;74.70;;;;;;5092955;28;20024;-78
2022/05/26 11:19:27;;;;;;;4.70;0.50;;;22.60;79.20;;;;;;5093154;28;20049;-79
2022/05/26 11:21:54;;;;;;;2.17;0.70;;;22.50;79.20;;;;;;5092005;28;20028;-79
2022/05/26 11:24:22;;;;;;;4.45;0.85;;;22.00;80.30;;;;;;5073256;28;20020;-80
2022/05/26 11:27:06;;;;;;;6.18;0.70;;;22.10;83.60;;;;;;5074884;28;20058;-80
2022/05/26 11:29:44;;;;;;;4.50;0.70;;;22.70;83.40;;;;;;5074060;28;20101;-79
2022/05/26 11:36:07;;;;;;;5.70;0.45;;;23.00;80.40;;;;;;5091646;28;20050;-79
2022/05/26 11:37:59;;;;;;;3.42;0.55;;;22.80;80.70;;;;;;5091357;28;20063;-79
2022/05/26 11:40:56;;;;;;;3.20;0.50;;;23.50;76.60;;;;;;5093007;28;20048;-79
2022/05/26 11:43:33;;;;;;;2.70;0.55;;;23.40;74.40;;;;;;5087482;28;20040;-78
2022/05/26 11:45:59;;;;;;;1.58;0.40;;;23.10;82.30;;;;;;5092193;28;20020;-79
2022/05/26 11:48:31;;;;;;;3.50;0.60;;;22.90;79.80;;;;;;5090803;28;20028;-79
2022/05/26 11:51:02;;;;;;;3.60;0.75;;;22.30;81.00;;;;;;5092574;28;20046;-79
2022/05/26 11:53:28;;;;;;;4.05;0.43;;;21.70;81.00;;;;;;5091977;28;20133;-79
2022/05/26 11:55:59;;;;;;;6.18;0.85;;;21.40;86.50;;;;;;5111350;22;20503;-79
2022/05/26 11:58:35;;;;;;;6.63;0.60;;;21.90;86.90;;;;;;5090219;28;20488;-77
2022/05/26 12:01:19;;;;;;;3.60;0.60;;;22.40;82.00;;;;;;5092647;28;20261;-79
2022/05/26 12:04:00;;;;;;;2.55;0.73;;;23.40;77.30;;;;;;5091772;28;20032;-79
2022/05/26 12:06:33;;;;;;;3.25;0.57;;;24.10;78.70;;;;;;5092337;28;20020;-78
2022/05/26 12:09:18;;;;;;;4.57;0.63;;;24.30;74.90;;;;;;5090869;28;20373;-79
2022/05/26 12:11:58;;;;;;;4.05;0.70;;;23.70;73.60;;;;;;5071712;28;20020;-79
2022/05/26 12:14:32;;;;;;;0.50;0.20;;;24.40;74.70;;;;;;5090531;28;20023;-78
2022/05/26 12:17:35;;;;;;;3.35;0.40;;;25.00;70.50;;;;;;5067416;28;20066;-79
2022/05/26 12:20:09;;;;;;;3.58;0.50;;;25.30;67.70;;;;;;5087409;28;20056;-78
2022/05/26 12:22:49;;;;;;;3.17;0.65;;;25.50;67.40;;;;;;5091238;28;20020;-78
2022/05/26 12:25:28;;;;;;;3.15;0.70;;;25.90;65.00;;;;;;5085842;28;20111;-79
2022/05/26 12:27:59;;;;;;;1.27;0.40;;;25.20;65.20;;;;;;5085049;28;20027;-78
2022/05/26 12:30:37;;;;;;;4.07;0.43;;;24.20;69.00;;;;;;5090460;28;20032;-79
2022/05/26 12:33:23;;;;;;;1.30;0.30;;;23.70;71.00;;;;;;5090833;28;20047;-78
2022/05/26 12:36:16;;;;;;;1.77;0.63;;;24.20;72.90;;;;;;5072692;28;20496;-78
2022/05/26 12:38:44;;;;;;;3.55;0.70;;;24.20;69.70;;;;;;5083447;28;20453;-78
2022/05/26 12:41:13;;;;;;;3.88;0.50;;;24.10;69.00;;;;;;5091081;28;20101;-79
2022/05/26 12:44:00;;;;;;;6.03;0.57;;;23.20;69.30;;;;;;5089472;28;20057;-79
2022/05/26 12:46:52;;;;;;;5.88;1.50;;;22.20;75.90;;;;;;5087061;28;20020;-78
2022/05/26 12:49:43;;;;;;;4.03;0.55;;;21.00;81.50;;;;;;5050834;28;20035;-78
2022/05/26 12:52:13;;;;;;;5.50;0.68;;;20.70;85.70;;;;;;5090545;28;20467;-79
2022/05/26 12:57:19;;;;;;;3.60;0.77;;;21.00;90.50;;;;;;5048075;28;20049;-80
2022/05/26 12:59:45;;;;;;;7.93;0.57;;;21.40;89.60;;;;;;5050887;28;20021;-79
2022/05/26 13:02:14;;;;;;;3.17;0.30;;;21.40;88.60;;;;;;5051014;28;20373;-79
2022/05/26 13:04:42;;;;;;;6.35;0.85;;;21.50;86.70;;;;;;5050714;28;20017;-79
2022/05/26 13:07:10;;;;;;;2.05;0.55;;;21.40;87.80;;;;;;5051270;28;20029;-79
2022/05/26 13:09:49;;;;;;;3.10;0.68;;;21.80;88.50;;;;;;5049566;28;20481;-80
2022/05/26 13:12:23;;;;;;;3.88;0.38;;;22.50;83.60;;;;;;5049854;28;20111;-81
2022/05/26 13:15:00;;;;;;;4.57;0.47;;;22.20;81.40;;;;;;5050421;28;20017;-80
2022/05/26 13:17:28;;;;;;;1.95;0.40;;;21.90;84.80;;;;;;5050935;28;20037;-79
2022/05/26 13:19:59;;;;;;;4.95;0.73;;;21.60;85.50;;;;;;5050656;28;20079;-80
2022/05/26 13:22:25;;;;;;;4.65;1.10;;;21.30;86.40;;;;;;5051314;28;20485;-80
2022/05/26 13:24:53;;;;;;;4.97;0.47;;;20.90;89.10;;;;;;5054200;28;20056;-80
2022/05/26 13:27:19;;;;;;;2.42;0.50;;;20.80;91.10;;;;;;5054736;28;20017;-80
2022/05/26 13:29:48;;;;;;;5.68;1.00;;;20.90;92.40;;;;;;5054307;28;20031;-81
2022/05/26 13:35:19;;;;;;;5.88;1.02;;;20.50;93.10;;;;;;5054679;28;20108;-81
2022/05/26 13:37:46;;;;;;;5.13;0.82;;;20.70;94.50;;;;;;5054166;28;20040;-79
2022/05/26 13:40:16;;;;;;;4.35;0.43;;;20.40;94.80;;;;;;5053890;28;20017;-80
2022/05/26 13:42:45;;;;;;;2.83;0.70;;;20.10;95.20;;;;;;5054891;28;20052;-79
2022/05/26 13:45:32;;;;;;;3.92;0.68;;;20.20;96.00;;;;;;5054432;28;20062;-80
2022/05/26 13:48:27;;;;;;;4.80;0.60;;;20.00;96.30;;;;;;5054588;28;20033;-80
2022/05/26 13:50:53;;;;;;;4.53;1.08;;;20.00;97.00;;;;;;5053518;28;20036;-81
2022/05/26 13:53:20;;;;;;;6.05;0.98;;;20.50;97.20;;;;;;5054017;28;20071;-80
2022/05/26 13:55:47;;;;;;;4.82;0.85;;;20.60;97.50;;;;;;5072655;22;20072;-79
2022/05/26 13:58:18;;;;;;;4.05;0.60;;;20.40;95.50;;;;;;5074027;28;20120;-79
2022/05/26 14:00:45;;;;;;;1.83;0.50;;;20.20;96.50;;;;;;5074478;28;20027;-79